Airfield :
LOGIN :

Register | Disclaimer

   EN    FR    IT 

 










Legend :    VFR   Marginal VFR   IFR   Intensive IFR   Very Intensive IFR
Visi :
Ceiling :
>= 8 km
>= 3000ft
5 to 8 km
1000 to 3000 ft
1500m to 5 km
500 to 1000 ft
800 to 1500m
200 to 500 ft
< 800m
< 200 ft
Symbols :   Thunderstorms  Fog  Heavy snow  Heavy precipitations  Wind > 20 kt
SIGMETs :     Misc.  Thunderstorms  Icing  Turbulence  Mountain Waves  Volcanic Ashes






- Airport Elevation : 313 ft
- IATA code : LEH


LFOH - Le Havre Octeville

CURRENT METAR :
  • 042200Z AUTO 04006KT 9999 BKN014 OVC023 05/04 Q1025

EXPIRED METARs :
  • 042130Z AUTO 03007KT 9999 FEW015 BKN027 OVC032 05/03 Q1024
  • 042100Z AUTO 02006KT 9999 OVC024 05/02 Q1024
  • 042030Z AUTO 03008KT 9999 OVC021 05/02 Q1024
  • 042000Z AUTO 04007KT 9999 OVC017 05/03 Q1024
  • 041930Z AUTO 03008KT 9999 BKN017 OVC023 05/04 Q1024

TAF TAF LFOH
Valid from the 04 at 12:00 until the 05 at 12:00 UTC


041100Z 0412/0512 34008KT 8000 OVC005
TEMPO 0412/0414 3000 SHRA BR BKN002 BKN015TCU
BECMG 0412/0414 04013KT
BECMG 0416/0420 BKN012
BECMG 0420/0423 BKN020
PROB30
TEMPO 0500/0506 BKN010
TEMPO 0507/0510 BKN012
ATIS : +33 2 35 54 64 93



MET'MAP, your aeronautical weather chart ! - Copyright ORBIFLY December 2007 - Disclaimer

ORBIFLY MET'MAP TEAM :

Programming & Development : Alexandra Zaïnal
Concept & original design : Baudouin d'Aumeries
Assistance for programming : Marc-Olivier Méhu
Technical & hardware support : Manuel Goepfert

Contact : metmap@orbifly.com




SOURCES & CREDITS :

   NOAA